createdAt,value
2022-09-11T07:19:30.752Z,96.59
2022-09-11T07:20:30.697Z,97.30
2022-09-11T07:21:30.678Z,96.64
2022-09-11T07:22:30.776Z,96.69
2022-09-11T07:23:30.620Z,96.80
2022-09-11T07:24:30.579Z,96.89
2022-09-11T07:25:30.588Z,96.49
2022-09-11T07:26:30.557Z,96.80
2022-09-11T07:27:30.607Z,97.10
2022-09-11T07:28:30.537Z,96.39
2022-09-11T07:29:30.523Z,97.00
2022-09-11T07:30:30.550Z,97.00
2022-09-11T07:31:30.523Z,96.89
2022-09-11T07:32:30.572Z,96.49
2022-09-11T07:33:30.488Z,97.25
2022-09-11T07:34:30.490Z,98.01
2022-09-11T07:35:30.467Z,97.55
2022-09-11T07:36:30.441Z,97.96
2022-09-11T07:37:30.435Z,97.96
2022-09-11T07:38:30.428Z,97.80
2022-09-11T07:39:30.473Z,97.71
2022-09-11T07:40:30.442Z,97.91
2022-09-11T07:41:30.392Z,97.30
2022-09-11T07:42:30.402Z,97.50
2022-09-11T07:43:30.379Z,97.71
2022-09-11T07:44:30.363Z,97.56
2022-09-11T07:45:30.462Z,96.85
2022-09-11T07:46:30.336Z,96.95
2022-09-11T07:47:30.403Z,96.45
2022-09-11T07:48:30.386Z,96.55
2022-09-11T07:49:30.305Z,96.75
2022-09-11T07:50:30.353Z,96.45
2022-09-11T07:51:30.309Z,96.34
2022-09-11T07:52:30.285Z,95.54
2022-09-11T07:53:30.294Z,95.43
2022-09-11T07:54:30.276Z,95.90
2022-09-11T07:55:30.248Z,94.94
2022-09-11T07:56:30.251Z,94.74
2022-09-11T07:57:30.235Z,94.29
2022-09-11T07:58:30.220Z,94.09
2022-09-11T07:59:30.197Z,93.29
2022-09-11T08:00:33.002Z,93.99
2022-09-11T08:01:31.247Z,93.85
2022-09-11T08:02:30.288Z,93.10
2022-09-11T08:03:30.155Z,92.33
2022-09-11T08:04:30.165Z,92.23
2022-09-11T08:05:30.143Z,93.44
2022-09-11T08:06:30.185Z,92.54
2022-09-11T08:07:30.126Z,93.24
2022-09-11T08:08:30.121Z,92.23
2022-09-11T08:09:30.133Z,93.04
2022-09-11T08:10:30.081Z,93.30
2022-09-11T08:11:30.079Z,92.39
2022-09-11T08:12:30.067Z,91.58
2022-09-11T08:13:30.098Z,90.78
2022-09-11T08:14:30.089Z,91.69
2022-09-11T08:15:30.058Z,91.04
2022-09-11T08:16:30.155Z,90.84
2022-09-11T08:17:30.019Z,90.59
2022-09-11T08:18:29.999Z,89.63
2022-09-11T08:19:29.993Z,90.84
2022-09-11T08:20:30.007Z,90.13
2022-09-11T08:21:30.030Z,90.49
2022-09-11T08:22:29.964Z,89.59
2022-09-11T08:23:29.971Z,89.12
2022-09-11T08:24:29.951Z,90.17
2022-09-11T08:25:29.954Z,90.58
2022-09-11T08:26:29.961Z,90.68
2022-09-11T08:27:29.955Z,91.42
2022-09-11T08:28:29.895Z,90.98
2022-09-11T08:29:29.880Z,91.13
2022-09-11T08:30:30.197Z,91.17
2022-09-11T08:31:29.912Z,91.93
2022-09-11T08:32:29.860Z,92.27
2022-09-11T08:33:29.848Z,91.77
2022-09-11T08:34:29.823Z,92.27
2022-09-11T08:35:29.844Z,92.47
2022-09-11T08:36:29.810Z,92.38
2022-09-11T08:37:29.793Z,93.49
2022-09-11T08:38:29.822Z,92.07
2022-09-11T08:39:29.789Z,91.97
2022-09-11T08:40:29.774Z,91.77
2022-09-11T08:41:29.768Z,92.58
2022-09-11T08:42:29.750Z,93.08
2022-09-11T08:43:29.752Z,93.08
2022-09-11T08:44:29.725Z,92.78
2022-09-11T08:45:29.732Z,92.54
2022-09-11T08:46:29.701Z,92.27
2022-09-11T08:47:29.688Z,93.18
2022-09-11T08:48:29.716Z,92.47
2022-09-11T08:49:29.683Z,92.58
2022-09-11T08:50:29.668Z,92.98
2022-09-11T08:51:29.646Z,93.29
2022-09-11T08:52:29.646Z,92.58
2022-09-11T08:53:29.624Z,92.98
2022-09-11T08:54:29.632Z,93.29
2022-09-11T08:55:29.632Z,92.68
2022-09-11T08:56:29.610Z,93.29
2022-09-11T08:57:29.619Z,93.59
2022-09-11T08:58:29.583Z,92.74
2022-09-11T08:59:29.584Z,92.90
2022-09-11T09:00:29.558Z,91.93
2022-09-11T09:01:29.616Z,92.03
2022-09-11T09:02:29.610Z,91.73
2022-09-11T09:03:29.533Z,92.03
2022-09-11T09:04:29.526Z,91.49
2022-09-11T09:05:29.545Z,91.02
2022-09-11T09:06:29.570Z,91.58
2022-09-11T09:07:29.474Z,92.19
2022-09-11T09:08:29.481Z,91.64
2022-09-11T09:09:34.331Z,90.64
2022-09-11T09:10:30.451Z,90.78
2022-09-11T09:11:29.467Z,91.49
2022-09-11T09:12:29.441Z,90.84
2022-09-11T09:13:29.416Z,89.43
2022-09-11T09:14:29.408Z,89.79
2022-09-11T09:15:29.642Z,89.18
2022-09-11T09:16:29.404Z,89.73
2022-09-11T09:17:29.405Z,90.73
2022-09-11T09:18:29.362Z,90.53
2022-09-11T09:19:29.384Z,90.23
2022-09-11T09:20:29.344Z,90.64
2022-09-11T09:21:29.366Z,90.48
2022-09-11T09:22:30.331Z,90.07
2022-09-11T09:23:29.347Z,90.13
2022-09-11T09:24:29.313Z,90.64
2022-09-11T09:25:31.370Z,89.79
2022-09-11T09:26:38.567Z,89.44
2022-09-11T09:27:29.447Z,88.79
2022-09-11T09:28:29.446Z,88.49
2022-09-11T09:29:29.358Z,88.79
2022-09-11T09:30:29.358Z,88.55
2022-09-11T09:31:29.324Z,86.04
2022-09-11T09:32:29.232Z,87.04
2022-09-11T09:33:29.202Z,86.74
2022-09-11T09:34:29.234Z,86.14
2022-09-11T09:35:29.205Z,86.70
2022-09-11T09:36:29.170Z,85.94
2022-09-11T09:37:29.279Z,87.15
2022-09-11T09:38:29.150Z,87.04
2022-09-11T09:39:29.141Z,85.44
2022-09-11T09:40:29.172Z,86.80
2022-09-11T09:41:29.147Z,84.89
2022-09-11T09:42:29.125Z,85.50
2022-09-11T09:43:29.124Z,85.30
2022-09-11T09:44:29.088Z,85.14
2022-09-11T09:45:29.082Z,86.04
2022-09-11T09:46:37.885Z,86.44
2022-09-11T09:47:29.199Z,85.24
2022-09-11T09:48:29.194Z,85.03
2022-09-11T09:49:29.098Z,86.85
2022-09-11T09:50:29.150Z,86.94
2022-09-11T09:51:29.051Z,85.84
2022-09-11T09:52:29.133Z,86.34
2022-09-11T09:53:29.185Z,87.19
2022-09-11T09:54:29.007Z,86.83
2022-09-11T09:55:29.022Z,87.02
2022-09-11T09:56:28.972Z,87.49
2022-09-11T09:57:37.927Z,86.79
2022-09-11T09:58:29.108Z,87.35
2022-09-11T09:59:29.004Z,86.85
2022-09-11T10:00:29.159Z,85.84
2022-09-11T10:01:29.055Z,86.34
2022-09-11T10:02:28.926Z,85.74
2022-09-11T10:03:28.903Z,86.99
2022-09-11T10:04:37.657Z,86.68
2022-09-11T10:05:28.966Z,85.08
2022-09-11T10:06:28.925Z,84.33
2022-09-11T10:07:28.958Z,85.17
2022-09-11T10:08:28.878Z,84.94
2022-09-11T10:09:28.838Z,84.75
2022-09-11T10:10:28.861Z,82.95
2022-09-11T10:11:28.813Z,83.15
2022-09-11T10:12:39.021Z,82.95
2022-09-11T10:13:28.961Z,83.95
2022-09-11T10:14:50.323Z,83.21
2022-09-11T10:15:29.839Z,81.96
2022-09-11T10:16:28.775Z,81.16
2022-09-11T10:17:28.757Z,81.16
2022-09-11T10:18:28.759Z,81.26
2022-09-11T10:19:28.727Z,81.82
2022-09-11T10:20:28.816Z,80.79
2022-09-11T10:21:28.774Z,80.18
2022-09-11T10:22:28.716Z,79.68
2022-09-11T10:24:40.577Z,80.98
2022-09-11T10:25:48.108Z,79.98
2022-09-11T10:26:40.449Z,80.52
2022-09-11T10:27:40.378Z,80.52
2022-09-11T10:28:40.561Z,80.62
2022-09-11T10:29:40.308Z,80.96
2022-09-11T10:30:40.265Z,80.70
2022-09-11T10:31:40.266Z,81.70
2022-09-11T10:32:40.313Z,81.00
2022-09-11T10:33:40.229Z,82.46
2022-09-11T10:34:40.437Z,81.96
2022-09-11T10:35:40.217Z,81.56
2022-09-11T10:36:40.210Z,80.90
2022-09-11T10:37:40.198Z,82.60
2022-09-11T10:38:41.615Z,82.34
2022-09-11T10:39:40.226Z,82.64
2022-09-11T10:40:40.489Z,81.94
2022-09-11T10:41:40.150Z,82.89
2022-09-11T10:42:40.233Z,82.58
2022-09-11T10:43:40.250Z,82.75
2022-09-11T10:44:40.141Z,83.15
2022-09-11T10:45:40.302Z,82.64
2022-09-11T10:46:40.382Z,83.04
2022-09-11T10:47:40.132Z,82.95
2022-09-11T10:48:40.159Z,82.95
2022-09-11T10:49:40.080Z,82.10
2022-09-11T10:50:40.118Z,81.40
2022-09-11T10:51:43.086Z,80.42
2022-09-11T10:52:41.177Z,77.91
2022-09-11T10:53:40.066Z,78.42
2022-09-11T10:54:50.060Z,79.22
2022-09-11T10:55:40.158Z,79.12
2022-09-11T10:56:40.046Z,79.38
2022-09-11T10:57:40.098Z,78.94
2022-09-11T10:58:54.786Z,80.35
2022-09-11T10:59:40.217Z,79.85
2022-09-11T11:00:40.035Z,79.68
2022-09-11T11:01:40.297Z,79.68
2022-09-11T11:02:40.013Z,78.48
2022-09-11T11:04:50.545Z,77.28
2022-09-11T11:05:50.467Z,77.84
2022-09-11T11:06:50.337Z,77.70
2022-09-11T11:07:50.525Z,77.30
2022-09-11T11:08:59.133Z,77.84
2022-09-11T11:09:50.476Z,77.78
2022-09-11T11:10:50.308Z,76.81
2022-09-11T11:11:50.220Z,77.41
2022-09-11T11:12:58.931Z,77.28
2022-09-11T11:13:58.496Z,77.24
2022-09-11T11:16:06.705Z,76.50
2022-09-11T11:17:06.659Z,77.20
2022-09-11T11:18:06.508Z,75.74
2022-09-11T11:19:06.529Z,77.24
2022-09-11T11:20:06.468Z,77.24
2022-09-11T11:21:06.438Z,76.84
2022-09-11T11:22:06.387Z,77.00
2022-09-11T11:23:06.414Z,77.10
2022-09-11T11:24:06.365Z,76.84
2022-09-11T11:25:06.364Z,78.44
2022-09-11T11:26:06.348Z,77.94
2022-09-11T11:27:06.495Z,76.07
2022-09-11T11:28:06.342Z,78.38
2022-09-11T11:29:06.321Z,78.38
2022-09-11T11:30:06.334Z,77.28
2022-09-11T11:31:06.404Z,77.85
2022-09-11T11:32:06.320Z,78.42
2022-09-11T11:33:06.307Z,78.75
2022-09-11T11:34:06.295Z,79.25
2022-09-11T11:35:06.325Z,79.16
2022-09-11T11:36:06.270Z,79.86
2022-09-11T11:37:06.249Z,79.55
2022-09-11T11:38:06.250Z,79.72
2022-09-11T11:39:06.247Z,79.98
2022-09-11T11:40:06.312Z,80.28
2022-09-11T11:41:06.246Z,77.54
2022-09-11T11:43:51.695Z,75.77
2022-09-11T11:44:51.565Z,76.04
2022-09-11T11:45:51.712Z,76.20
2022-09-11T11:46:51.545Z,76.90
2022-09-11T11:47:51.488Z,75.37
2022-09-11T11:48:51.437Z,73.96
2022-09-11T11:49:51.453Z,74.37
2022-09-11T11:50:51.610Z,74.33
2022-09-11T11:51:51.492Z,72.96
2022-09-11T11:52:51.496Z,74.37
2022-09-11T11:53:51.475Z,74.59
2022-09-11T11:54:51.384Z,73.19
2022-09-11T11:55:51.400Z,72.49
2022-09-11T11:57:01.734Z,71.92
2022-09-11T11:58:00.654Z,72.46
2022-09-11T11:58:51.572Z,72.56
2022-09-11T11:59:51.594Z,72.79
2022-09-11T12:00:55.237Z,72.79
2022-09-11T12:01:51.492Z,72.09
2022-09-11T12:02:51.293Z,72.59
2022-09-11T12:03:51.405Z,72.63
2022-09-11T12:04:51.298Z,73.09
2022-09-11T12:05:51.305Z,73.09
2022-09-11T12:06:51.286Z,72.76
2022-09-11T12:07:51.634Z,71.72
2022-09-11T12:08:51.320Z,70.06
2022-09-11T12:09:51.284Z,68.36
2022-09-11T12:10:51.202Z,70.65
2022-09-11T12:11:51.342Z,69.66
2022-09-11T12:12:51.343Z,70.16
2022-09-11T12:15:09.683Z,68.29
2022-09-11T12:17:21.977Z,68.76
2022-09-11T12:19:33.521Z,70.79
2022-09-11T12:21:44.806Z,71.52
2022-09-11T12:22:44.744Z,69.99
2022-09-11T12:23:55.190Z,70.39
2022-09-11T12:24:44.675Z,70.19
2022-09-11T12:25:44.972Z,69.02
2022-09-11T12:28:01.504Z,68.16
2022-09-11T12:29:10.689Z,69.69
2022-09-11T12:32:09.105Z,70.03
2022-09-11T12:33:08.487Z,69.16
2022-09-11T12:35:26.111Z,69.89
2022-09-11T12:36:25.875Z,69.06
2022-09-11T12:37:25.896Z,68.26
2022-09-11T12:39:41.086Z,67.86
2022-09-11T12:40:40.834Z,68.10
2022-09-11T12:41:40.838Z,68.03
2022-09-11T12:42:40.838Z,69.59
2022-09-11T12:43:40.789Z,67.96
2022-09-11T12:44:40.682Z,68.26
2022-09-11T12:45:40.696Z,67.90
2022-09-11T12:46:40.668Z,68.13
2022-09-11T12:47:40.719Z,66.99
2022-09-11T12:48:40.686Z,68.19
2022-09-11T12:49:40.655Z,70.06
2022-09-11T12:50:40.680Z,68.59
2022-09-11T12:51:40.760Z,69.09
2022-09-11T12:52:40.930Z,69.53
2022-09-11T12:53:44.995Z,69.32
2022-09-11T12:54:41.623Z,68.02
2022-09-11T12:55:40.585Z,70.53
2022-09-11T12:56:40.553Z,69.12
2022-09-11T12:57:40.571Z,69.82
2022-09-11T12:58:40.668Z,69.82
2022-09-11T12:59:40.689Z,69.76
2022-09-11T13:00:40.508Z,72.86
2022-09-11T13:01:40.583Z,74.40
2022-09-11T13:02:40.497Z,74.93
2022-09-11T13:03:40.480Z,76.43
2022-09-11T13:04:40.508Z,77.17
2022-09-11T13:05:40.507Z,77.21
2022-09-11T13:06:40.591Z,78.02
2022-09-11T13:07:40.485Z,78.02
2022-09-11T13:08:40.525Z,78.81
2022-09-11T13:09:40.496Z,78.61
2022-09-11T13:10:40.447Z,79.25
2022-09-11T13:11:40.533Z,79.49
2022-09-11T13:12:40.437Z,79.69
2022-09-11T13:13:40.474Z,80.04
2022-09-11T13:14:40.457Z,81.24
2022-09-11T13:15:40.442Z,81.54
2022-09-11T13:16:40.588Z,81.44
2022-09-11T13:17:40.340Z,83.15
2022-09-11T13:20:44.096Z,90.61
2022-09-11T13:22:58.645Z,93.11
2022-09-11T13:25:24.121Z,95.77
2022-09-11T13:26:24.218Z,96.37
2022-09-11T13:28:56.294Z,97.78
2022-09-11T13:29:56.282Z,98.28
2022-09-11T13:30:56.238Z,99.08
2022-09-11T13:31:56.483Z,98.88
2022-09-11T13:33:04.519Z,99.19
2022-09-11T13:33:56.443Z,98.99
2022-09-11T13:34:56.260Z,99.29
2022-09-11T13:35:56.138Z,99.39
2022-09-11T13:36:56.733Z,99.19
2022-09-11T13:37:56.079Z,99.79
2022-09-11T13:38:56.281Z,99.29
2022-09-11T13:39:59.999Z,99.59
2022-09-11T13:40:56.030Z,98.79
2022-09-11T13:41:56.766Z,99.39
2022-09-11T13:42:56.285Z,99.39
2022-09-11T13:43:58.301Z,99.08
2022-09-11T13:44:56.348Z,98.88
2022-09-11T13:45:56.049Z,99.29
2022-09-11T13:46:55.979Z,99.29
2022-09-11T13:47:55.969Z,99.59
2022-09-11T13:48:55.972Z,99.49
2022-09-11T13:49:55.958Z,98.99
2022-09-11T13:50:55.920Z,99.29
2022-09-11T13:51:55.934Z,98.79
2022-09-11T13:52:55.942Z,99.04
2022-09-11T13:53:55.891Z,99.29
2022-09-11T13:54:55.900Z,99.59
2022-09-11T13:55:55.862Z,99.59
2022-09-11T13:56:55.864Z,99.69
2022-09-11T13:57:55.862Z,99.99
2022-09-11T13:58:55.848Z,99.64
2022-09-11T13:59:56.432Z,99.64
2022-09-11T14:00:56.428Z,99.24
2022-09-11T14:01:56.162Z,99.54
2022-09-11T14:02:55.854Z,99.44
2022-09-11T14:03:58.615Z,99.33
2022-09-11T14:04:57.784Z,99.99
2022-09-11T14:05:55.773Z,99.99
2022-09-11T14:06:55.742Z,99.99
2022-09-11T14:07:55.760Z,99.99
2022-09-11T14:08:55.727Z,99.99
2022-09-11T14:09:56.400Z,99.74
2022-09-11T14:10:55.740Z,99.99
2022-09-11T14:11:55.684Z,99.99
2022-09-11T14:12:55.675Z,99.99
2022-09-11T14:13:55.717Z,99.79
2022-09-11T14:14:55.648Z,99.54
2022-09-11T14:15:55.697Z,99.44
2022-09-11T14:16:55.629Z,99.49
2022-09-11T14:17:55.612Z,99.99
2022-09-11T14:18:55.639Z,99.85
2022-09-11T14:20:00.308Z,99.85
2022-09-11T14:20:56.588Z,98.54
2022-09-11T14:21:55.580Z,98.74
2022-09-11T14:22:55.568Z,98.49
2022-09-11T14:23:55.560Z,98.65
2022-09-11T14:24:55.545Z,98.69
2022-09-11T14:25:55.552Z,98.85
2022-09-11T14:26:55.620Z,98.74
2022-09-11T14:27:55.517Z,98.14
2022-09-11T14:29:04.125Z,97.33
2022-09-11T14:30:04.578Z,97.28
2022-09-11T14:30:55.612Z,98.04
2022-09-11T14:31:55.523Z,98.70
2022-09-11T14:32:55.551Z,98.44
2022-09-11T14:33:55.456Z,98.04
2022-09-11T14:34:55.437Z,97.89
2022-09-11T14:35:55.434Z,97.59
2022-09-11T14:36:55.520Z,96.13
2022-09-11T14:37:55.408Z,96.89
2022-09-11T14:38:55.389Z,95.68
2022-09-11T14:39:55.448Z,95.83
2022-09-11T14:40:55.405Z,96.33
2022-09-11T14:41:55.363Z,96.93
2022-09-11T14:42:55.361Z,96.98
2022-09-11T14:43:55.339Z,97.09
2022-09-11T14:44:55.349Z,96.94
2022-09-11T14:45:55.347Z,96.28
2022-09-11T14:46:55.347Z,95.78
2022-09-11T14:47:55.297Z,95.18
2022-09-11T14:48:55.287Z,95.53
2022-09-11T14:49:55.272Z,95.43
2022-09-11T14:50:55.282Z,95.03
2022-09-11T14:51:55.268Z,95.64
2022-09-11T14:52:55.248Z,95.84
2022-09-11T14:53:55.236Z,93.42
2022-09-11T14:54:55.217Z,94.23
2022-09-11T14:55:55.227Z,93.93
2022-09-11T14:56:55.194Z,94.18
2022-09-11T14:57:55.203Z,92.47
2022-09-11T14:58:55.201Z,93.68
2022-09-11T14:59:55.160Z,93.98
2022-09-11T15:00:55.158Z,94.08
2022-09-11T15:01:55.166Z,93.78
2022-09-11T15:02:55.183Z,92.43
2022-09-11T15:03:55.124Z,92.83
2022-09-11T15:04:55.116Z,92.33
2022-09-11T15:05:55.095Z,93.43
2022-09-11T15:06:55.103Z,93.43
2022-09-11T15:07:55.077Z,93.69
2022-09-11T15:08:55.067Z,91.02
2022-09-11T15:09:55.071Z,90.37
2022-09-11T15:10:55.048Z,90.48
2022-09-11T15:11:55.050Z,90.22
2022-09-11T15:12:55.028Z,91.08
2022-09-11T15:14:14.426Z,90.08
2022-09-11T15:14:58.245Z,88.11
2022-09-11T15:15:55.031Z,88.01
2022-09-11T15:16:54.993Z,89.01
2022-09-11T15:17:54.988Z,89.82
2022-09-11T15:18:54.952Z,90.26
2022-09-11T15:19:54.949Z,90.06
2022-09-11T15:20:54.942Z,90.52
2022-09-11T15:21:54.935Z,90.12
2022-09-11T15:22:54.927Z,89.72
2022-09-11T15:23:54.914Z,90.32
2022-09-11T15:24:54.891Z,89.42
2022-09-11T15:25:54.878Z,88.51
2022-09-11T15:26:54.877Z,89.11
2022-09-11T15:27:54.892Z,89.51
2022-09-11T15:28:54.848Z,90.42
2022-09-11T15:29:54.839Z,90.12
2022-09-11T15:30:54.919Z,89.92
2022-09-11T15:31:54.825Z,88.87
2022-09-11T15:32:54.829Z,88.57
2022-09-11T15:33:54.814Z,88.47
2022-09-11T15:34:54.822Z,87.10
2022-09-11T15:35:54.781Z,88.61
2022-09-11T15:36:54.760Z,88.67
2022-09-11T15:37:54.773Z,88.87
2022-09-11T15:38:54.755Z,89.31
2022-09-11T15:39:54.786Z,89.22
2022-09-11T15:40:54.718Z,88.81
2022-09-11T15:41:54.710Z,89.11
2022-09-11T15:42:54.702Z,90.12
2022-09-11T15:43:54.694Z,90.02
2022-09-11T15:44:54.678Z,90.12
2022-09-11T15:45:54.811Z,89.62
2022-09-11T15:46:54.678Z,90.17
2022-09-11T15:47:54.640Z,90.48
2022-09-11T15:48:54.652Z,90.72
2022-09-11T15:49:54.622Z,89.11
2022-09-11T15:50:54.618Z,90.22
2022-09-11T15:51:54.614Z,90.52
2022-09-11T15:52:54.594Z,90.06
2022-09-11T15:53:54.582Z,89.96
2022-09-11T15:54:54.585Z,90.06
2022-09-11T15:55:54.555Z,90.36
2022-09-11T15:56:54.550Z,90.30
2022-09-11T15:57:54.550Z,91.11
2022-09-11T15:58:54.525Z,91.61
2022-09-11T15:59:54.530Z,91.31
2022-09-11T16:00:54.521Z,91.66
2022-09-11T16:01:54.531Z,91.50
2022-09-11T16:02:54.499Z,92.06
2022-09-11T16:03:54.498Z,91.80
2022-09-11T16:04:54.480Z,92.40
2022-09-11T16:05:54.450Z,92.30
2022-09-11T16:06:54.440Z,93.01
2022-09-11T16:07:54.425Z,93.15
2022-09-11T16:08:54.415Z,93.31
2022-09-11T16:09:54.416Z,93.51
2022-09-11T16:10:54.409Z,93.26
2022-09-11T16:11:54.403Z,93.05
2022-09-11T16:12:58.143Z,93.51
2022-09-11T16:13:54.385Z,92.55
2022-09-11T16:14:54.352Z,93.11
2022-09-11T16:15:54.365Z,94.21
2022-09-11T16:16:54.371Z,94.32
2022-09-11T16:17:54.318Z,94.21
2022-09-11T16:18:54.338Z,94.82
2022-09-11T16:19:54.296Z,94.62
2022-09-11T16:20:54.289Z,93.81
2022-09-11T16:21:54.306Z,94.06
2022-09-11T16:22:54.269Z,95.07
2022-09-11T16:23:56.856Z,94.72
2022-09-11T16:24:55.251Z,95.42
2022-09-11T16:25:54.237Z,95.57
2022-09-11T16:26:54.224Z,95.73
2022-09-11T16:27:54.237Z,95.22
2022-09-11T16:28:54.214Z,95.57
2022-09-11T16:30:39.211Z,95.42
2022-09-11T16:30:55.285Z,95.62
2022-09-11T16:31:54.177Z,95.32
2022-09-11T16:32:54.158Z,94.36
2022-09-11T16:33:54.159Z,94.96
2022-09-11T16:34:54.159Z,94.92
2022-09-11T16:35:54.126Z,95.73
2022-09-11T16:36:54.124Z,94.76
2022-09-11T16:37:54.126Z,95.22
2022-09-11T16:38:54.101Z,95.67
2022-09-11T16:39:54.178Z,96.43
2022-09-11T16:40:54.085Z,96.73
2022-09-11T16:41:54.072Z,95.83
2022-09-11T16:42:54.063Z,96.53
2022-09-11T16:43:54.051Z,96.28
2022-09-11T16:44:54.034Z,94.06
2022-09-11T16:45:54.048Z,94.46
2022-09-11T16:46:54.023Z,94.46
2022-09-11T16:47:54.005Z,94.56
2022-09-11T16:48:56.171Z,94.46
2022-09-11T16:50:09.502Z,94.36
2022-09-11T16:50:54.997Z,94.46
2022-09-11T16:51:53.963Z,94.36
2022-09-11T16:52:53.955Z,94.56
2022-09-11T16:53:53.948Z,95.17
2022-09-11T16:54:53.925Z,94.96
2022-09-11T16:55:53.934Z,94.56
2022-09-11T16:56:53.908Z,95.77
2022-09-11T16:57:53.948Z,94.31
2022-09-11T16:58:53.899Z,94.16
2022-09-11T16:59:53.871Z,95.17
2022-09-11T17:00:53.940Z,94.81
2022-09-11T17:01:53.872Z,95.47
2022-09-11T17:02:53.841Z,95.11
2022-09-11T17:03:53.833Z,95.92
2022-09-11T17:04:53.872Z,96.68
2022-09-11T17:05:53.811Z,96.48
2022-09-11T17:06:53.823Z,97.23
2022-09-11T17:07:53.791Z,97.63
2022-09-11T17:08:53.798Z,97.73
2022-09-11T17:09:53.777Z,97.43
2022-09-11T17:10:53.775Z,98.13
2022-09-11T17:11:53.754Z,98.08
2022-09-11T17:12:53.735Z,98.08
2022-09-11T17:13:53.750Z,98.18
2022-09-11T17:14:53.720Z,98.18
2022-09-11T17:15:53.746Z,98.79
2022-09-11T17:16:53.699Z,98.79
2022-09-11T17:17:53.685Z,98.79
2022-09-11T17:18:53.668Z,98.88
2022-09-11T17:19:53.666Z,98.73
2022-09-11T17:20:53.668Z,98.13
2022-09-11T17:21:53.634Z,98.02
2022-09-11T17:22:57.812Z,98.83
2022-09-11T17:23:53.614Z,98.83
2022-09-11T17:24:53.607Z,99.04
2022-09-11T17:25:53.618Z,98.83
2022-09-11T17:26:53.583Z,99.24
2022-09-11T17:27:53.574Z,99.44
2022-09-11T17:28:53.564Z,98.88
2022-09-11T17:29:53.562Z,99.48
2022-09-11T17:30:53.541Z,99.38
2022-09-11T17:32:10.650Z,99.38
2022-09-11T17:32:54.520Z,99.53
2022-09-11T17:33:53.510Z,99.58
2022-09-11T17:34:53.504Z,99.48
2022-09-11T17:35:53.513Z,99.53
2022-09-11T17:36:53.491Z,99.73
2022-09-11T17:37:53.472Z,99.99
2022-09-11T17:38:53.475Z,99.93
2022-09-11T17:39:53.499Z,99.99
2022-09-11T17:40:53.436Z,99.99
2022-09-11T17:41:53.437Z,99.99
2022-09-11T17:42:53.427Z,99.99
2022-09-11T17:43:53.405Z,99.99
2022-09-11T17:44:53.390Z,99.99
2022-09-11T17:45:53.374Z,99.99
2022-09-11T17:46:53.373Z,99.99
2022-09-11T17:47:53.388Z,99.99
2022-09-11T17:48:53.355Z,99.99
2022-09-11T17:49:53.344Z,99.99
2022-09-11T17:50:53.337Z,99.99
2022-09-11T17:51:53.324Z,99.99
2022-09-11T17:52:53.321Z,99.99
2022-09-11T17:53:53.317Z,99.99
2022-09-11T17:54:53.310Z,99.99
2022-09-11T17:55:53.275Z,99.99
2022-09-11T17:56:53.271Z,99.99
2022-09-11T17:57:53.258Z,99.99
2022-09-11T17:58:53.269Z,99.99
2022-09-11T17:59:53.240Z,99.99
2022-09-11T18:00:53.267Z,99.99
2022-09-11T18:01:53.281Z,99.99
2022-09-11T18:02:53.203Z,99.99
2022-09-11T18:03:53.190Z,99.99
2022-09-11T18:04:53.198Z,99.99
2022-09-11T18:05:53.196Z,99.99
2022-09-11T18:06:53.165Z,99.99
2022-09-11T18:07:53.170Z,99.99
2022-09-11T18:08:53.152Z,99.99
2022-09-11T18:09:56.413Z,99.99
2022-09-11T18:10:53.128Z,99.99
2022-09-11T18:11:53.111Z,99.99
2022-09-11T18:12:53.101Z,99.99
2022-09-11T18:13:53.075Z,99.99
2022-09-11T18:14:53.082Z,99.99
2022-09-11T18:15:53.101Z,99.99
2022-09-11T18:16:53.060Z,99.99
2022-09-11T18:17:53.050Z,99.99
2022-09-11T18:18:53.024Z,99.99
2022-09-11T18:19:53.039Z,99.99
2022-09-11T18:20:53.009Z,99.99
2022-09-11T18:21:52.999Z,99.99
2022-09-11T18:22:52.988Z,99.99
2022-09-11T18:23:52.983Z,99.99
2022-09-11T18:24:53.906Z,99.99
2022-09-11T18:25:52.962Z,99.99
2022-09-11T18:26:56.092Z,99.99
2022-09-11T18:27:53.961Z,99.99
2022-09-11T18:28:52.925Z,99.99
2022-09-11T18:29:52.908Z,99.99
2022-09-11T18:30:52.909Z,99.99
2022-09-11T18:31:52.957Z,99.99
2022-09-11T18:32:52.868Z,99.99
2022-09-11T18:33:52.868Z,99.99
2022-09-11T18:34:52.865Z,99.99
2022-09-11T18:35:52.838Z,99.99
2022-09-11T18:36:52.837Z,99.99
2022-09-11T18:37:52.815Z,99.99
2022-09-11T18:38:52.813Z,99.99
2022-09-11T18:39:52.841Z,99.99
2022-09-11T18:40:52.793Z,99.99
2022-09-11T18:41:52.819Z,99.99
2022-09-11T18:42:52.902Z,99.99
2022-09-11T18:43:52.757Z,99.99
2022-09-11T18:44:52.747Z,99.99
2022-09-11T18:45:52.740Z,99.99
2022-09-11T18:46:52.784Z,99.99
2022-09-11T18:47:52.735Z,99.99
2022-09-11T18:48:52.729Z,99.99
2022-09-11T18:49:52.684Z,99.99
2022-09-11T18:50:52.683Z,99.99
2022-09-11T18:51:52.667Z,99.99
2022-09-11T18:52:52.661Z,99.99
2022-09-11T18:53:52.660Z,99.99
2022-09-11T18:54:52.642Z,99.99
2022-09-11T18:55:52.621Z,99.99
2022-09-11T18:56:52.617Z,99.99
2022-09-11T18:57:52.634Z,99.99
2022-09-11T18:58:52.613Z,99.99
2022-09-11T18:59:52.584Z,99.99
2022-09-11T19:00:52.672Z,99.99
2022-09-11T19:01:52.669Z,99.99
2022-09-11T19:02:52.545Z,99.99
2022-09-11T19:03:52.554Z,99.99
2022-09-11T19:04:52.544Z,99.99
2022-09-11T19:05:52.522Z,99.99
2022-09-11T19:06:52.514Z,99.99
2022-09-11T19:07:52.491Z,99.99
2022-09-11T19:08:52.481Z,99.99
2022-09-11T19:09:52.468Z,99.99
2022-09-11T19:10:52.955Z,99.99
2022-09-11T19:11:52.458Z,99.99
2022-09-11T19:12:52.442Z,99.99
2022-09-11T19:13:52.436Z,99.99
2022-09-11T19:14:52.449Z,99.99
2022-09-11T19:15:52.422Z,99.99
2022-09-11T19:16:52.391Z,99.99
2022-09-11T19:17:52.382Z,99.99
2022-09-11T19:18:52.372Z,99.99
2022-09-11T19:19:52.505Z,99.99
2022-09-11T19:20:52.354Z,99.99
2022-09-11T19:21:52.350Z,99.99
2022-09-11T19:22:52.342Z,99.99
2022-09-11T19:23:52.322Z,99.99
2022-09-11T19:24:52.332Z,99.99
2022-09-11T19:25:52.294Z,99.99
2022-09-11T19:26:52.284Z,99.99
2022-09-11T19:27:52.275Z,99.99
2022-09-11T19:28:52.265Z,99.99
2022-09-11T19:29:52.259Z,99.99
2022-09-11T19:30:52.281Z,99.99
2022-09-11T19:31:52.236Z,99.99
2022-09-11T19:32:52.219Z,99.99
2022-09-11T19:33:52.208Z,99.99
2022-09-11T19:34:52.203Z,99.99
2022-09-11T19:35:52.199Z,99.99
2022-09-11T19:36:52.188Z,99.99
2022-09-11T19:37:52.174Z,99.99
2022-09-11T19:38:52.175Z,99.99
2022-09-11T19:39:52.206Z,99.99
2022-09-11T19:40:52.138Z,99.99
2022-09-11T19:41:52.135Z,99.99
2022-09-11T19:42:52.127Z,99.99
2022-09-11T19:43:52.112Z,99.99
2022-09-11T19:44:56.185Z,99.99
2022-09-11T19:45:52.086Z,99.99
2022-09-11T19:46:52.127Z,99.99
2022-09-11T19:47:52.066Z,99.99
2022-09-11T19:48:52.044Z,99.99
2022-09-11T19:49:52.053Z,99.99
2022-09-11T19:50:52.034Z,99.99
2022-09-11T19:51:52.020Z,99.99
2022-09-11T19:52:52.011Z,99.99
2022-09-11T19:53:51.995Z,99.99
2022-09-11T19:54:51.992Z,99.99
2022-09-11T19:55:51.975Z,99.99
2022-09-11T19:56:51.967Z,99.99
2022-09-11T19:57:51.956Z,99.99
2022-09-11T19:58:51.957Z,99.99
2022-09-11T19:59:51.932Z,99.99
2022-09-11T20:00:51.982Z,99.99
2022-09-11T20:01:51.985Z,99.99
2022-09-11T20:02:51.914Z,99.99
2022-09-11T20:03:51.893Z,99.99
2022-09-11T20:04:51.873Z,99.99
2022-09-11T20:05:51.876Z,99.99
2022-09-11T20:07:21.294Z,99.99
2022-09-11T20:08:21.242Z,99.99
2022-09-11T20:09:36.740Z,99.99
2022-09-11T20:10:22.228Z,99.99
2022-09-11T20:11:21.212Z,99.99
2022-09-11T20:12:21.231Z,99.99
2022-09-11T20:13:21.212Z,99.99
2022-09-11T20:14:21.181Z,99.99
2022-09-11T20:15:21.194Z,99.99
2022-09-11T20:16:21.190Z,99.99
2022-09-11T20:17:21.161Z,99.99
2022-09-11T20:18:21.174Z,99.99
2022-09-11T20:19:21.128Z,99.99
2022-09-11T20:20:21.119Z,99.99
2022-09-11T20:21:21.120Z,99.99
2022-09-11T20:22:21.105Z,99.99
2022-09-11T20:23:21.100Z,99.99
2022-09-11T20:24:21.097Z,99.99
2022-09-11T20:25:21.082Z,99.99
2022-09-11T20:26:21.073Z,99.99
2022-09-11T20:27:21.047Z,99.99
2022-09-11T20:28:21.039Z,99.99
2022-09-11T20:29:21.049Z,99.99
2022-09-11T20:30:21.026Z,99.99
2022-09-11T20:31:21.043Z,99.99
2022-09-11T20:32:21.003Z,99.99
2022-09-11T20:33:20.988Z,99.99
2022-09-11T20:34:20.996Z,99.99